createdAt,value
2022-12-06T00:01:56.998Z,6.20
2022-12-06T00:06:51.886Z,6.20
2022-12-06T00:11:44.216Z,6.20
2022-12-06T00:16:37.219Z,6.30
2022-12-06T00:21:39.585Z,6.20
2022-12-06T00:26:34.631Z,6.20
2022-12-06T00:31:29.102Z,6.20
2022-12-06T00:36:23.808Z,6.20
2022-12-06T00:41:24.676Z,6.20
2022-12-06T00:46:19.808Z,6.30
2022-12-06T00:51:12.736Z,6.30
2022-12-06T00:56:05.288Z,6.30
2022-12-06T01:01:14.315Z,6.30
2022-12-06T01:06:13.325Z,6.30
2022-12-06T01:11:07.194Z,6.40
2022-12-06T01:16:09.359Z,6.30
2022-12-06T01:21:09.942Z,6.30
2022-12-06T01:26:07.052Z,6.40
2022-12-06T01:30:59.349Z,6.40
2022-12-06T01:35:51.454Z,6.40
2022-12-06T01:40:46.829Z,6.40
2022-12-06T01:45:48.969Z,6.40
2022-12-06T01:50:42.889Z,6.40
2022-12-06T01:55:39.075Z,6.40
2022-12-06T02:00:31.163Z,6.30
2022-12-06T02:10:49.073Z,6.40
2022-12-06T02:15:55.295Z,6.30
2022-12-06T02:21:04.659Z,6.20
2022-12-06T02:26:21.425Z,6.20
2022-12-06T02:31:13.371Z,6.20
2022-12-06T02:36:17.510Z,6.30
2022-12-06T02:41:22.368Z,6.20
2022-12-06T02:46:17.412Z,6.10
2022-12-06T02:51:13.930Z,6.20
2022-12-06T02:56:06.298Z,6.10
2022-12-06T03:01:01.579Z,6.10
2022-12-06T03:06:02.487Z,6.10
2022-12-06T03:11:00.532Z,6.10
2022-12-06T03:16:07.211Z,6.20
2022-12-06T03:21:10.963Z,6.10
2022-12-06T03:26:05.231Z,6.10
2022-12-06T03:31:04.320Z,6.10
2022-12-06T03:35:58.389Z,6.10
2022-12-06T03:40:52.899Z,6.10
2022-12-06T03:45:58.069Z,6.10
2022-12-06T03:50:58.912Z,6.10
2022-12-06T03:55:50.933Z,6.10
2022-12-06T04:00:42.918Z,6.10
2022-12-06T04:05:34.844Z,6.10
2022-12-06T04:10:26.868Z,6.10
2022-12-06T04:15:20.532Z,6.20
2022-12-06T04:20:13.809Z,6.10
2022-12-06T04:25:06.168Z,6.10
2022-12-06T04:30:16.611Z,6.10
2022-12-06T04:35:27.042Z,6.10
2022-12-06T04:40:21.484Z,6.10
2022-12-06T04:45:13.451Z,6.10
2022-12-06T04:50:05.945Z,6.10
2022-12-06T04:54:57.928Z,6.10
2022-12-06T04:59:51.225Z,6.10
2022-12-06T05:04:43.302Z,6.10
2022-12-06T05:09:35.277Z,6.10
2022-12-06T05:14:27.212Z,6.00
2022-12-06T05:19:19.329Z,6.10
2022-12-06T05:24:11.611Z,6.10
2022-12-06T05:29:03.692Z,6.10
2022-12-06T05:33:55.585Z,6.10
2022-12-06T05:38:51.588Z,6.00
2022-12-06T05:43:44.076Z,6.00
2022-12-06T05:48:36.253Z,6.10
2022-12-06T05:53:28.255Z,6.10
2022-12-06T05:58:20.572Z,6.00
2022-12-06T06:03:12.650Z,6.00
2022-12-06T06:08:04.915Z,6.00
2022-12-06T06:12:56.960Z,6.00
2022-12-06T06:17:48.927Z,6.00
2022-12-06T06:22:42.360Z,6.00
2022-12-06T06:27:37.736Z,5.90
2022-12-06T06:32:29.708Z,5.90
2022-12-06T06:37:21.696Z,5.90
2022-12-06T06:42:13.712Z,5.90
2022-12-06T06:47:06.065Z,5.90
2022-12-06T06:51:58.038Z,6.00
2022-12-06T06:56:49.962Z,6.00
2022-12-06T07:01:42.004Z,6.00
2022-12-06T07:06:34.021Z,6.00
2022-12-06T07:11:26.043Z,6.00
2022-12-06T07:16:18.270Z,6.00
2022-12-06T07:21:13.410Z,6.00
2022-12-06T07:26:17.281Z,6.00
2022-12-06T07:31:15.761Z,5.90
2022-12-06T07:36:13.210Z,5.90
2022-12-06T07:41:28.622Z,6.00
2022-12-06T07:46:20.974Z,6.00
2022-12-06T07:51:13.075Z,6.00
2022-12-06T07:56:08.394Z,6.00
2022-12-06T08:01:02.253Z,6.00
2022-12-06T08:05:55.847Z,6.00
2022-12-06T08:10:48.138Z,6.00
2022-12-06T08:15:40.716Z,6.00
2022-12-06T08:20:33.204Z,6.00
2022-12-06T08:25:25.175Z,6.00
2022-12-06T08:30:17.459Z,6.00
2022-12-06T08:35:09.586Z,6.00
2022-12-06T08:40:01.707Z,5.90
2022-12-06T08:44:54.488Z,6.00
2022-12-06T08:49:46.517Z,6.00
2022-12-06T08:54:39.853Z,6.00
2022-12-06T08:59:31.892Z,6.10
2022-12-06T09:04:24.221Z,6.10
2022-12-06T09:09:18.122Z,6.20
2022-12-06T09:14:21.185Z,6.20
2022-12-06T09:19:14.754Z,6.30
2022-12-06T09:24:07.101Z,6.30
2022-12-06T09:29:00.138Z,6.40
2022-12-06T09:33:52.631Z,6.30
2022-12-06T09:38:47.096Z,6.30
2022-12-06T09:43:59.926Z,6.40
2022-12-06T09:49:16.416Z,6.40
2022-12-06T09:54:11.448Z,6.40
2022-12-06T09:59:28.832Z,6.40
2022-12-06T10:04:41.822Z,6.40
2022-12-06T10:09:46.953Z,6.40
2022-12-06T10:15:03.400Z,6.30
2022-12-06T10:20:05.909Z,6.30
2022-12-06T10:24:57.846Z,6.30
2022-12-06T10:29:59.740Z,6.30
2022-12-06T10:35:04.267Z,6.40
2022-12-06T10:40:18.833Z,6.40
2022-12-06T10:45:50.052Z,6.30
2022-12-06T10:50:43.842Z,6.30
2022-12-06T10:55:52.108Z,6.20
2022-12-06T11:00:49.928Z,6.30
2022-12-06T11:05:43.929Z,6.20
2022-12-06T11:10:36.404Z,6.20
2022-12-06T11:15:35.417Z,6.30
2022-12-06T11:20:34.191Z,6.20
2022-12-06T11:25:31.620Z,6.20
2022-12-06T11:30:23.676Z,6.20
2022-12-06T11:35:23.144Z,6.20
2022-12-06T11:40:28.852Z,6.10
2022-12-06T11:45:29.295Z,6.20
2022-12-06T11:50:22.262Z,6.20
2022-12-06T11:55:24.201Z,6.10
2022-12-06T12:00:21.708Z,6.10
2022-12-06T12:05:25.623Z,6.10
2022-12-06T12:10:38.292Z,6.20
2022-12-06T12:15:30.352Z,6.10
2022-12-06T12:20:31.862Z,6.00
2022-12-06T12:25:29.628Z,6.10
2022-12-06T12:30:29.157Z,6.10
2022-12-06T12:35:21.436Z,6.10
2022-12-06T12:40:42.600Z,6.10
2022-12-06T12:45:34.710Z,6.00
2022-12-06T12:50:28.941Z,6.00
2022-12-06T12:55:30.167Z,5.90
2022-12-06T13:00:35.253Z,6.00
2022-12-06T13:05:35.773Z,5.90
2022-12-06T13:10:34.997Z,5.90
2022-12-06T13:15:41.483Z,5.90
2022-12-06T13:20:35.750Z,5.90
2022-12-06T13:25:28.299Z,5.90
2022-12-06T13:30:25.237Z,5.80
2022-12-06T13:35:23.794Z,5.80
2022-12-06T13:40:37.625Z,5.70
2022-12-06T13:45:48.713Z,5.70
2022-12-06T13:50:40.742Z,5.70
2022-12-06T13:55:32.659Z,5.60
2022-12-06T14:00:47.687Z,5.60
2022-12-06T14:06:09.037Z,5.60
2022-12-06T14:11:10.658Z,5.60
2022-12-06T14:16:04.229Z,5.60
2022-12-06T14:20:57.916Z,5.60
2022-12-06T14:25:49.924Z,5.60
2022-12-06T14:30:43.999Z,5.50
2022-12-06T14:35:36.397Z,5.50
2022-12-06T14:45:41.926Z,5.50
2022-12-06T14:50:50.881Z,5.40
2022-12-06T14:55:56.367Z,5.30
2022-12-06T15:01:00.013Z,5.30
2022-12-06T15:06:09.698Z,5.30
2022-12-06T15:11:33.612Z,5.30
2022-12-06T15:16:25.644Z,5.30
2022-12-06T15:21:18.187Z,5.30
2022-12-06T15:26:13.336Z,5.30
2022-12-06T15:31:27.019Z,5.30
2022-12-06T15:36:27.808Z,5.30
2022-12-06T15:41:24.875Z,5.30
2022-12-06T15:46:25.170Z,5.20
2022-12-06T15:51:21.114Z,5.20
2022-12-06T15:56:15.011Z,5.20
2022-12-06T16:01:17.060Z,5.10
2022-12-06T16:06:14.273Z,5.00
2022-12-06T16:11:14.054Z,4.90
2022-12-06T16:16:06.915Z,4.90
2022-12-06T16:20:59.247Z,4.90
2022-12-06T16:25:51.310Z,4.90
2022-12-06T16:30:43.359Z,4.80
2022-12-06T16:35:35.587Z,4.90
2022-12-06T16:40:28.995Z,4.90
2022-12-06T16:45:21.167Z,5.00
2022-12-06T16:50:24.115Z,4.90
2022-12-06T16:55:16.394Z,4.90
2022-12-06T17:00:10.526Z,4.80
2022-12-06T17:05:06.964Z,4.70
2022-12-06T17:09:59.764Z,4.70
2022-12-06T17:14:52.150Z,4.70
2022-12-06T17:19:44.537Z,4.70
2022-12-06T17:24:37.006Z,4.70
2022-12-06T17:29:29.330Z,4.60
2022-12-06T17:34:25.879Z,4.70
2022-12-06T17:39:20.252Z,4.60
2022-12-06T17:44:12.905Z,4.70
2022-12-06T17:49:06.016Z,4.70
2022-12-06T17:53:58.150Z,4.60
2022-12-06T17:58:50.392Z,4.60
2022-12-06T18:03:42.681Z,4.60
2022-12-06T18:08:34.631Z,4.50
2022-12-06T18:13:29.283Z,4.50
2022-12-06T18:18:21.313Z,4.50
2022-12-06T18:23:13.960Z,4.50
2022-12-06T18:28:06.498Z,4.50
2022-12-06T18:33:02.365Z,4.50
2022-12-06T18:37:54.329Z,4.40
2022-12-06T18:42:46.295Z,4.40
2022-12-06T18:47:38.266Z,4.40
2022-12-06T18:52:30.304Z,4.40
2022-12-06T18:57:25.254Z,4.30
2022-12-06T19:02:19.703Z,4.40
2022-12-06T19:07:12.082Z,4.30
2022-12-06T19:12:04.970Z,4.40
2022-12-06T19:16:57.066Z,4.40
2022-12-06T19:21:50.520Z,4.40
2022-12-06T19:26:43.145Z,4.30
2022-12-06T19:31:35.770Z,4.30
2022-12-06T19:36:29.458Z,4.30
2022-12-06T19:41:21.626Z,4.30
2022-12-06T19:46:21.457Z,4.30
2022-12-06T19:51:13.644Z,4.30
2022-12-06T19:56:07.680Z,4.30
2022-12-06T20:00:59.917Z,4.30
2022-12-06T20:06:05.526Z,4.30
2022-12-06T20:11:02.721Z,4.20
2022-12-06T20:16:02.906Z,4.20
2022-12-06T20:20:55.179Z,4.20
2022-12-06T20:25:49.166Z,4.20
2022-12-06T20:30:41.318Z,4.20
2022-12-06T20:35:37.302Z,4.20
2022-12-06T20:40:31.621Z,4.20
2022-12-06T20:45:25.119Z,4.20
2022-12-06T20:50:17.157Z,4.20
2022-12-06T20:55:09.851Z,4.10
2022-12-06T21:00:07.096Z,4.20
2022-12-06T21:04:59.857Z,4.20
2022-12-06T21:09:51.904Z,4.20
2022-12-06T21:14:44.132Z,4.20
2022-12-06T21:19:36.050Z,4.20
2022-12-06T21:24:28.097Z,4.30
2022-12-06T21:29:29.712Z,4.30
2022-12-06T21:34:22.316Z,4.20
2022-12-06T21:39:14.840Z,4.20
2022-12-06T21:44:07.531Z,4.30
2022-12-06T21:49:00.584Z,4.30
2022-12-06T21:53:53.058Z,4.20
2022-12-06T21:58:45.800Z,4.30
2022-12-06T22:03:38.401Z,4.30
2022-12-06T22:08:30.371Z,4.30
2022-12-06T22:13:22.256Z,4.40
2022-12-06T22:18:14.155Z,4.30
2022-12-06T22:23:06.367Z,4.40
2022-12-06T22:27:58.334Z,4.40
2022-12-06T22:32:50.351Z,4.50
2022-12-06T22:37:42.570Z,4.40
2022-12-06T22:42:35.130Z,4.50
2022-12-06T22:47:27.103Z,4.50
2022-12-06T22:52:19.036Z,4.60
2022-12-06T22:57:10.986Z,4.60
2022-12-06T23:02:03.065Z,4.60
2022-12-06T23:06:55.113Z,4.60
2022-12-06T23:11:47.055Z,4.60
2022-12-06T23:16:39.249Z,4.70
2022-12-06T23:21:34.464Z,4.60
2022-12-06T23:26:32.715Z,4.70
2022-12-06T23:31:33.647Z,4.70
2022-12-06T23:36:28.421Z,4.70
2022-12-06T23:41:22.691Z,4.60
2022-12-06T23:46:21.949Z,4.60
2022-12-06T23:51:16.747Z,4.70
2022-12-06T23:56:11.621Z,4.70
